Time;durP1;ratioP1;P1;durP2;ratioP2;P2;SDS_P1;SDS_P2;PMS_P1;PMS_P2;Temp;Humidity;BMP_temperature;BMP_pressure;BME280_temperature;BME280_humidity;BME280_pressure;Samples;Min_cycle;Max_cycle;Signal;HPM_P1;HPM_P2
2021/01/29 00:01:02;;;;;;;2.30;1.60;;;16.70;43.50;;;;;;6164834;23;20132;-82
2021/01/29 00:03:29;;;;;;;3.70;1.83;;;16.70;43.60;;;;;;6114933;23;20147;-81
2021/01/29 00:05:58;;;;;;;2.00;1.52;;;16.70;43.60;;;;;;6165171;23;20144;-81
2021/01/29 00:08:24;;;;;;;2.78;1.48;;;16.70;43.70;;;;;;6165037;23;20136;-81
2021/01/29 00:10:51;;;;;;;4.47;1.70;;;16.70;43.50;;;;;;6137827;23;20187;-83
2021/01/29 00:13:18;;;;;;;4.00;1.70;;;16.70;43.70;;;;;;6114781;23;20474;-82
2021/01/29 00:15:46;;;;;;;3.05;1.55;;;16.60;43.80;;;;;;6164837;23;20170;-82
2021/01/29 00:18:12;;;;;;;3.47;1.45;;;16.60;43.90;;;;;;6165002;23;20131;-83
2021/01/29 00:20:39;;;;;;;3.08;1.60;;;16.70;43.70;;;;;;6138682;23;20210;-83
2021/01/29 00:23:07;;;;;;;2.95;1.55;;;16.70;43.70;;;;;;6165684;23;20124;-82
2021/01/29 00:25:53;;;;;;;2.05;1.60;;;16.70;43.70;;;;;;6164918;23;20132;-82
2021/01/29 00:28:40;;;;;;;2.58;1.50;;;16.70;43.60;;;;;;6164259;23;20138;-82
2021/01/29 00:31:24;;;;;;;3.03;1.80;;;16.60;43.90;;;;;;6163280;23;20137;-82
2021/01/29 00:33:51;;;;;;;2.38;1.30;;;16.60;43.70;;;;;;6163842;23;20158;-82
2021/01/29 00:36:18;;;;;;;3.33;1.40;;;16.60;43.70;;;;;;6137495;23;20258;-82
2021/01/29 00:38:53;;;;;;;2.78;1.40;;;16.70;43.70;;;;;;6164119;23;20132;-83
2021/01/29 00:41:27;;;;;;;3.40;1.60;;;16.70;43.50;;;;;;6164125;23;20136;-81
2021/01/29 00:43:55;;;;;;;2.30;1.30;;;16.60;43.80;;;;;;6163568;23;20135;-81
2021/01/29 00:46:22;;;;;;;2.75;1.60;;;16.60;43.80;;;;;;6163997;23;20219;-82
2021/01/29 00:48:49;;;;;;;2.25;1.42;;;16.60;43.70;;;;;;6164872;23;20227;-82
2021/01/29 00:51:15;;;;;;;4.38;1.63;;;16.60;43.70;;;;;;6164207;23;20200;-84
2021/01/29 00:53:43;;;;;;;3.45;1.55;;;16.60;43.70;;;;;;6113291;23;20166;-81
2021/01/29 00:56:09;;;;;;;3.08;1.50;;;16.60;43.70;;;;;;6137745;23;20223;-82
2021/01/29 00:58:43;;;;;;;2.60;1.58;;;16.60;43.80;;;;;;6137271;23;20139;-82
2021/01/29 01:01:09;;;;;;;3.85;1.50;;;16.70;43.70;;;;;;6163823;23;20162;-80
2021/01/29 01:03:36;;;;;;;5.20;1.85;;;16.60;43.70;;;;;;6163561;23;20159;-82
2021/01/29 01:06:11;;;;;;;2.33;1.52;;;16.60;44.00;;;;;;6163933;23;20146;-83
2021/01/29 01:08:39;;;;;;;3.10;1.42;;;16.60;43.90;;;;;;6137797;23;20158;-83
2021/01/29 01:11:04;;;;;;;2.40;1.30;;;16.60;43.80;;;;;;6137385;23;20580;-83
2021/01/29 01:13:31;;;;;;;4.93;1.33;;;16.60;44.00;;;;;;6113327;23;20136;-82
2021/01/29 01:15:57;;;;;;;1.63;1.40;;;16.60;44.40;;;;;;6164190;23;20587;-81
2021/01/29 01:18:32;;;;;;;3.47;1.48;;;16.60;44.10;;;;;;6163612;23;20136;-82
2021/01/29 01:20:58;;;;;;;2.40;1.60;;;16.60;44.10;;;;;;6112901;23;20602;-83
2021/01/29 01:23:24;;;;;;;2.60;1.48;;;16.60;44.00;;;;;;6137060;23;20147;-80
2021/01/29 01:25:51;;;;;;;3.22;1.48;;;16.60;44.00;;;;;;6164106;23;20163;-83
2021/01/29 01:28:25;;;;;;;2.83;1.67;;;16.60;43.90;;;;;;6163694;23;20223;-82
2021/01/29 01:30:52;;;;;;;2.45;1.58;;;16.60;44.10;;;;;;6162856;23;20178;-80
2021/01/29 01:33:26;;;;;;;2.42;1.42;;;16.50;43.90;;;;;;6136568;23;20168;-80
2021/01/29 01:35:53;;;;;;;2.10;1.60;;;16.60;44.10;;;;;;6163489;23;20178;-80
2021/01/29 01:38:19;;;;;;;4.10;1.50;;;16.60;44.30;;;;;;6135972;23;20534;-81
2021/01/29 01:40:46;;;;;;;3.55;1.70;;;16.60;44.10;;;;;;6136071;23;20158;-82
2021/01/29 01:43:12;;;;;;;2.17;1.67;;;16.60;43.90;;;;;;6135998;23;20178;-81
2021/01/29 01:46:10;;;;;;;2.55;1.52;;;16.60;44.10;;;;;;6136560;23;20139;-81
2021/01/29 01:48:55;;;;;;;3.58;1.70;;;16.50;44.20;;;;;;6160789;23;20159;-82
2021/01/29 01:51:36;;;;;;;2.63;1.40;;;16.60;44.10;;;;;;6162031;23;20507;-83
2021/01/29 01:54:04;;;;;;;2.30;1.65;;;16.50;44.10;;;;;;6136134;23;20139;-80
2021/01/29 01:56:44;;;;;;;2.45;1.52;;;16.60;44.00;;;;;;6162466;23;20159;-82
2021/01/29 01:59:23;;;;;;;4.70;1.63;;;16.60;44.20;;;;;;6162164;23;20231;-79
2021/01/29 02:02:10;;;;;;;5.22;1.60;;;16.50;44.20;;;;;;6136676;23;20139;-81
2021/01/29 02:04:55;;;;;;;3.47;1.60;;;16.50;44.30;;;;;;6162012;23;20221;-81
2021/01/29 02:07:20;;;;;;;2.90;1.55;;;16.50;44.50;;;;;;6135925;23;20479;-82
2021/01/29 02:09:48;;;;;;;2.63;1.50;;;16.50;44.50;;;;;;6136279;23;20575;-83
2021/01/29 02:12:16;;;;;;;3.72;1.45;;;16.50;44.20;;;;;;6163225;23;20270;-82
2021/01/29 02:14:42;;;;;;;2.47;1.70;;;16.60;44.20;;;;;;6136531;23;20132;-81
2021/01/29 02:17:13;;;;;;;2.83;1.55;;;16.60;44.30;;;;;;6136001;23;20163;-80
2021/01/29 02:20:01;;;;;;;2.17;1.40;;;16.60;44.40;;;;;;6161324;23;20163;-82
2021/01/29 02:22:38;;;;;;;3.22;1.63;;;16.50;44.60;;;;;;6136638;23;20136;-82
2021/01/29 02:25:38;;;;;;;2.42;1.70;;;16.50;44.40;;;;;;6162370;23;20532;-80
2021/01/29 02:28:07;;;;;;;3.33;1.52;;;16.50;44.60;;;;;;6162947;23;20166;-82
2021/01/29 02:31:04;;;;;;;2.10;1.55;;;16.50;44.40;;;;;;6135699;23;20151;-82
2021/01/29 02:33:54;;;;;;;1.88;1.40;;;16.50;44.40;;;;;;6071157;23;20161;-81
2021/01/29 02:36:43;;;;;;;3.42;1.58;;;16.50;44.30;;;;;;6071789;23;20175;-80
2021/01/29 02:39:32;;;;;;;2.83;1.90;;;16.50;44.40;;;;;;6071450;23;20161;-81
2021/01/29 02:42:14;;;;;;;2.50;1.42;;;16.50;44.70;;;;;;5958951;24;20192;-82
2021/01/29 02:45:17;;;;;;;2.35;1.50;;;16.50;44.60;;;;;;5935924;24;20581;-82
2021/01/29 02:48:02;;;;;;;3.22;1.77;;;16.50;44.50;;;;;;5958376;24;20180;-82
2021/01/29 02:50:35;;;;;;;2.30;1.67;;;16.50;44.40;;;;;;5958627;24;20159;-83
2021/01/29 02:53:06;;;;;;;5.20;1.70;;;16.50;44.50;;;;;;5911479;24;20160;-81
2021/01/29 02:55:39;;;;;;;3.58;1.70;;;16.40;44.70;;;;;;5932516;24;20149;-83
2021/01/29 02:58:18;;;;;;;1.73;1.63;;;16.50;44.60;;;;;;5931859;24;20565;-80
2021/01/29 03:01:05;;;;;;;2.28;1.75;;;16.50;44.70;;;;;;5931928;24;20680;-81
2021/01/29 03:03:54;;;;;;;2.05;1.67;;;16.40;44.80;;;;;;5952451;24;20265;-82
2021/01/29 03:06:58;;;;;;;3.33;1.70;;;16.40;44.40;;;;;;5955286;24;20243;-82
2021/01/29 03:09:38;;;;;;;2.00;1.63;;;16.40;44.70;;;;;;5972881;23;20154;-81
2021/01/29 03:12:12;;;;;;;2.53;1.73;;;16.40;44.90;;;;;;5987795;23;20225;-82
2021/01/29 03:14:49;;;;;;;2.42;1.50;;;16.40;44.90;;;;;;5988075;23;20646;-80
2021/01/29 03:17:29;;;;;;;3.60;1.50;;;16.40;44.80;;;;;;5988017;23;20518;-82
2021/01/29 03:20:12;;;;;;;2.30;1.70;;;16.40;44.70;;;;;;6117536;23;20182;-82
2021/01/29 03:23:09;;;;;;;2.13;1.60;;;16.40;44.90;;;;;;6158289;23;20132;-82
2021/01/29 03:25:39;;;;;;;3.95;1.67;;;16.40;44.70;;;;;;6130922;23;20156;-82
2021/01/29 03:28:22;;;;;;;2.90;2.25;;;16.40;44.80;;;;;;6132168;23;20139;-80
2021/01/29 03:30:58;;;;;;;1.75;1.50;;;16.40;44.70;;;;;;6159123;23;20131;-80
2021/01/29 03:33:26;;;;;;;2.35;1.50;;;16.40;44.90;;;;;;6132017;23;20262;-80
2021/01/29 03:36:17;;;;;;;2.75;1.63;;;16.40;44.90;;;;;;6131820;23;20245;-81
2021/01/29 03:39:05;;;;;;;2.72;1.42;;;16.40;44.90;;;;;;6129352;23;20136;-81
2021/01/29 03:41:41;;;;;;;2.90;1.90;;;16.40;44.90;;;;;;6158532;23;20131;-81
2021/01/29 03:44:21;;;;;;;2.28;1.48;;;16.40;45.00;;;;;;6133154;23;20575;-81
2021/01/29 03:46:57;;;;;;;3.28;1.90;;;16.40;44.80;;;;;;6158305;23;20144;-80
2021/01/29 03:49:25;;;;;;;2.08;1.48;;;16.40;45.00;;;;;;6158463;23;20135;-79
2021/01/29 03:51:57;;;;;;;3.22;1.60;;;16.40;44.70;;;;;;6158514;23;20564;-82
2021/01/29 03:54:27;;;;;;;2.35;1.58;;;16.40;44.90;;;;;;6157802;23;20128;-80
2021/01/29 03:56:58;;;;;;;2.38;1.55;;;16.40;44.70;;;;;;6132190;23;20171;-82
2021/01/29 03:59:29;;;;;;;2.97;1.70;;;16.40;45.00;;;;;;6134449;23;20215;-80
2021/01/29 04:02:22;;;;;;;2.13;1.80;;;16.40;44.90;;;;;;6161258;23;20219;-82
2021/01/29 04:05:01;;;;;;;4.13;1.80;;;16.40;44.80;;;;;;6135738;23;20527;-82
2021/01/29 04:07:35;;;;;;;2.40;1.70;;;16.40;45.00;;;;;;6137732;23;20475;-83
2021/01/29 04:10:08;;;;;;;1.88;1.50;;;16.40;44.70;;;;;;6140705;23;20143;-83
2021/01/29 04:13:07;;;;;;;2.20;1.73;;;16.40;44.80;;;;;;6140356;23;20187;-81
2021/01/29 04:15:53;;;;;;;3.55;1.60;;;16.40;45.40;;;;;;6075092;23;20165;-82
2021/01/29 04:18:30;;;;;;;3.15;1.50;;;16.40;44.60;;;;;;6051858;23;20176;-82
2021/01/29 04:21:16;;;;;;;2.13;1.77;;;16.40;44.90;;;;;;6052015;23;20175;-80
2021/01/29 04:24:13;;;;;;;2.08;1.45;;;16.40;45.00;;;;;;6052543;23;20142;-80
2021/01/29 04:26:55;;;;;;;1.77;1.45;;;16.40;44.90;;;;;;6051635;23;20212;-79
2021/01/29 04:29:29;;;;;;;2.45;1.70;;;16.40;45.00;;;;;;6051417;23;20148;-81
2021/01/29 04:32:01;;;;;;;1.98;1.55;;;16.40;45.00;;;;;;6075227;23;20617;-82
2021/01/29 04:34:29;;;;;;;2.35;1.90;;;16.40;45.00;;;;;;6051814;23;20142;-81
2021/01/29 04:36:57;;;;;;;2.08;1.60;;;16.40;44.90;;;;;;6051374;23;20208;-83
2021/01/29 04:39:32;;;;;;;2.40;1.60;;;16.40;44.90;;;;;;6050655;23;20153;-82
2021/01/29 04:42:00;;;;;;;2.45;1.80;;;16.40;45.10;;;;;;6050985;23;20148;-82
2021/01/29 04:45:01;;;;;;;1.80;1.50;;;16.40;45.00;;;;;;6074307;23;20138;-83
2021/01/29 04:47:47;;;;;;;2.35;1.60;;;16.40;45.00;;;;;;6074479;23;20137;-82
2021/01/29 04:50:31;;;;;;;3.22;1.80;;;16.40;44.90;;;;;;6051376;23;20589;-82
2021/01/29 04:53:15;;;;;;;2.53;1.65;;;16.40;45.00;;;;;;6133928;23;20198;-82
2021/01/29 04:56:16;;;;;;;2.10;1.50;;;16.30;45.30;;;;;;6166034;23;20139;-82
2021/01/29 04:59:29;;;;;;;2.40;1.65;;;16.30;45.30;;;;;;6139320;23;20230;-81
2021/01/29 05:02:19;;;;;;;2.45;1.50;;;16.30;44.60;;;;;;6074990;23;20157;-83
2021/01/29 05:05:07;;;;;;;2.40;1.58;;;16.30;45.00;;;;;;6075019;23;20683;-81
2021/01/29 05:08:09;;;;;;;2.60;1.80;;;16.40;44.50;;;;;;6074298;23;20611;-83
2021/01/29 05:10:50;;;;;;;2.35;1.60;;;16.40;44.60;;;;;;6074465;23;20212;-81
2021/01/29 05:13:19;;;;;;;2.05;1.58;;;16.40;44.30;;;;;;6050686;23;20157;-81
2021/01/29 05:16:03;;;;;;;2.60;1.60;;;16.40;44.40;;;;;;6074245;23;20193;-81
2021/01/29 05:18:41;;;;;;;2.42;1.70;;;16.40;44.60;;;;;;6074623;23;20138;-83
2021/01/29 05:21:41;;;;;;;1.58;1.48;;;16.40;44.20;;;;;;6074142;23;20138;-82
2021/01/29 05:24:46;;;;;;;2.92;1.80;;;16.50;44.20;;;;;;6027105;23;20146;-82
2021/01/29 05:27:30;;;;;;;3.40;1.95;;;16.50;43.90;;;;;;6044859;23;20613;-81
2021/01/29 05:30:14;;;;;;;1.83;1.60;;;16.50;44.30;;;;;;6045163;23;20142;-82
2021/01/29 05:33:24;;;;;;;2.80;1.80;;;16.50;43.90;;;;;;6044750;23;20237;-82
2021/01/29 05:36:11;;;;;;;3.30;2.00;;;16.40;44.00;;;;;;6045238;23;20170;-83
2021/01/29 05:38:37;;;;;;;2.00;1.60;;;16.40;44.20;;;;;;6057075;23;20157;-83
2021/01/29 05:41:38;;;;;;;2.50;1.70;;;16.40;44.20;;;;;;6073850;23;20196;-82
2021/01/29 05:44:04;;;;;;;2.28;1.80;;;16.40;43.90;;;;;;5959998;24;20152;-82
2021/01/29 05:47:06;;;;;;;3.55;2.10;;;16.40;43.90;;;;;;5960289;24;20166;-82
2021/01/29 05:49:59;;;;;;;1.92;1.63;;;16.40;44.20;;;;;;5959676;24;20159;-82
2021/01/29 05:52:32;;;;;;;2.53;1.60;;;16.40;43.80;;;;;;5937055;24;20147;-81
2021/01/29 05:55:02;;;;;;;2.47;1.80;;;16.40;44.10;;;;;;5960200;24;20176;-82
2021/01/29 05:58:09;;;;;;;2.15;1.90;;;16.40;44.20;;;;;;5937220;24;20188;-81
2021/01/29 06:01:13;;;;;;;2.03;1.80;;;16.40;43.90;;;;;;5877321;24;20155;-82
2021/01/29 06:03:57;;;;;;;1.95;1.75;;;16.50;43.90;;;;;;5887929;24;20157;-82
2021/01/29 06:06:48;;;;;;;3.38;1.80;;;16.50;43.90;;;;;;5905580;24;20212;-82
2021/01/29 06:09:37;;;;;;;2.00;1.80;;;16.50;43.50;;;;;;5905169;24;20150;-81
2021/01/29 06:12:40;;;;;;;2.15;1.73;;;16.50;43.90;;;;;;5904753;24;20328;-81
2021/01/29 06:15:41;;;;;;;3.28;1.88;;;16.40;43.70;;;;;;5904688;24;20161;-80
2021/01/29 06:18:21;;;;;;;2.10;1.70;;;16.40;43.90;;;;;;5824385;24;20289;-81
2021/01/29 06:21:02;;;;;;;2.30;1.80;;;16.40;43.90;;;;;;5861755;24;20286;-82
2021/01/29 06:23:52;;;;;;;2.90;1.80;;;16.40;43.60;;;;;;5904421;24;20172;-82
2021/01/29 06:26:36;;;;;;;2.83;1.60;;;16.40;43.60;;;;;;5905178;24;20283;-82
2021/01/29 06:29:34;;;;;;;3.78;1.88;;;16.50;43.20;;;;;;5904669;24;20233;-83
2021/01/29 06:32:31;;;;;;;2.03;1.63;;;16.60;43.30;;;;;;5854661;24;20606;-81
2021/01/29 06:35:02;;;;;;;2.03;1.65;;;16.50;43.50;;;;;;5877963;24;20162;-83
2021/01/29 06:37:53;;;;;;;3.10;1.83;;;16.50;43.60;;;;;;5906798;24;20188;-83
2021/01/29 06:40:52;;;;;;;1.90;1.70;;;16.40;43.40;;;;;;5928776;24;20161;-82
2021/01/29 06:43:48;;;;;;;4.60;2.03;;;16.50;43.20;;;;;;5928287;24;20563;-82
2021/01/29 06:46:25;;;;;;;3.88;1.92;;;16.50;43.50;;;;;;5927590;24;20149;-81
2021/01/29 06:49:05;;;;;;;2.33;1.80;;;16.60;43.20;;;;;;5926556;24;20161;-80
2021/01/29 06:52:10;;;;;;;3.10;2.08;;;16.60;42.80;;;;;;5904205;24;20153;-81
2021/01/29 06:55:13;;;;;;;3.28;1.90;;;16.60;43.10;;;;;;5975580;24;20155;-82
2021/01/29 06:58:26;;;;;;;4.60;2.17;;;16.50;43.30;;;;;;5982753;24;20592;-80
2021/01/29 07:01:06;;;;;;;3.47;2.03;;;16.50;43.30;;;;;;5927305;24;20679;-82
2021/01/29 07:04:09;;;;;;;3.17;2.10;;;16.50;43.20;;;;;;5927597;24;20244;-81
2021/01/29 07:06:54;;;;;;;5.60;1.98;;;16.50;43.30;;;;;;5927667;24;20168;-80
2021/01/29 07:09:27;;;;;;;2.70;1.67;;;16.50;43.10;;;;;;5986142;23;20763;-82
2021/01/29 07:12:35;;;;;;;2.90;1.90;;;16.60;43.00;;;;;;6011302;23;20198;-81
2021/01/29 07:15:28;;;;;;;2.67;2.00;;;16.60;42.90;;;;;;5917309;24;20162;-81
2021/01/29 07:17:59;;;;;;;2.00;1.80;;;16.50;42.60;;;;;;5900158;24;20229;-80
2021/01/29 07:20:56;;;;;;;2.55;1.75;;;16.60;43.50;;;;;;5901973;24;20210;-82
2021/01/29 07:23:37;;;;;;;4.50;2.05;;;16.60;42.70;;;;;;5923191;24;20146;-80
2021/01/29 07:26:05;;;;;;;2.80;2.00;;;16.60;43.00;;;;;;5902341;24;20157;-80
2021/01/29 07:28:33;;;;;;;3.38;1.92;;;16.50;42.90;;;;;;5902688;24;20630;-80
2021/01/29 07:31:31;;;;;;;7.15;2.03;;;16.60;43.00;;;;;;5902948;24;20146;-79
2021/01/29 07:34:24;;;;;;;3.40;1.85;;;16.60;42.60;;;;;;5917600;23;20154;-80
2021/01/29 07:37:12;;;;;;;3.55;1.98;;;16.60;42.40;;;;;;6015977;23;20567;-80
2021/01/29 07:40:12;;;;;;;3.38;2.08;;;16.60;42.80;;;;;;6015764;23;20159;-80
2021/01/29 07:43:14;;;;;;;2.05;1.85;;;16.60;42.70;;;;;;6015503;23;20143;-81
2021/01/29 07:45:48;;;;;;;2.42;1.73;;;16.50;42.60;;;;;;6015953;23;20231;-83
2021/01/29 07:48:38;;;;;;;2.47;1.98;;;16.60;42.70;;;;;;5991800;23;20162;-80
2021/01/29 07:51:23;;;;;;;2.72;2.00;;;16.60;42.90;;;;;;6057209;23;20683;-83
2021/01/29 07:54:24;;;;;;;2.45;1.90;;;16.60;43.00;;;;;;6132610;23;20136;-79
2021/01/29 07:57:13;;;;;;;4.13;2.00;;;16.60;43.30;;;;;;6018968;23;20185;-82
2021/01/29 08:00:17;;;;;;;3.20;2.00;;;16.50;43.30;;;;;;6019144;23;20591;-81
2021/01/29 08:03:01;;;;;;;2.88;2.20;;;16.60;43.00;;;;;;6042683;23;20142;-80
2021/01/29 08:05:46;;;;;;;2.20;1.90;;;16.60;43.20;;;;;;6020280;23;20179;-81
2021/01/29 08:08:18;;;;;;;2.92;2.20;;;16.60;43.00;;;;;;6020610;23;20541;-82
2021/01/29 08:10:45;;;;;;;6.03;2.13;;;16.60;42.90;;;;;;6018545;23;20185;-82
2021/01/29 08:13:46;;;;;;;2.63;2.05;;;16.70;42.60;;;;;;5997789;23;20142;-82
2021/01/29 08:16:48;;;;;;;4.10;2.40;;;16.70;42.70;;;;;;5971773;24;20215;-82
2021/01/29 08:19:20;;;;;;;3.03;2.20;;;16.60;42.70;;;;;;5993019;24;20134;-82
2021/01/29 08:21:57;;;;;;;3.55;2.10;;;16.60;42.50;;;;;;5961509;24;20158;-80
2021/01/29 08:24:40;;;;;;;2.90;2.22;;;16.60;42.60;;;;;;5961364;24;20602;-82
2021/01/29 08:27:24;;;;;;;3.17;2.33;;;16.70;42.50;;;;;;5984051;24;20234;-82
2021/01/29 08:30:04;;;;;;;2.60;2.10;;;16.60;42.60;;;;;;5962409;24;20139;-82
2021/01/29 08:32:42;;;;;;;2.35;1.95;;;16.60;42.80;;;;;;5986402;23;20147;-82
2021/01/29 08:35:31;;;;;;;4.82;2.28;;;16.60;42.50;;;;;;6098576;23;20177;-81
2021/01/29 08:38:11;;;;;;;2.53;2.10;;;16.60;42.40;;;;;;6098930;23;20140;-82
2021/01/29 08:41:07;;;;;;;3.95;2.38;;;16.60;42.60;;;;;;6099912;23;20152;-81
2021/01/29 08:44:12;;;;;;;2.67;2.28;;;16.60;42.60;;;;;;6078179;23;20168;-82
2021/01/29 08:46:52;;;;;;;2.67;2.13;;;16.60;42.50;;;;;;6094126;23;20184;-81
2021/01/29 08:49:41;;;;;;;2.50;2.22;;;16.60;42.60;;;;;;6071639;23;20533;-81
2021/01/29 08:52:13;;;;;;;3.63;2.20;;;16.70;42.40;;;;;;6100252;23;20167;-82
2021/01/29 08:54:48;;;;;;;4.88;2.10;;;16.60;42.40;;;;;;6126086;23;20243;-80
2021/01/29 08:57:35;;;;;;;3.60;2.25;;;16.60;42.40;;;;;;6125943;23;20173;-80
2021/01/29 09:00:02;;;;;;;2.42;2.00;;;16.60;42.30;;;;;;6127693;23;20140;-83
2021/01/29 09:02:41;;;;;;;3.58;2.53;;;16.70;42.00;;;;;;6127802;23;20194;-81
2021/01/29 09:05:13;;;;;;;3.90;2.20;;;16.70;41.90;;;;;;6127764;23;20517;-81
2021/01/29 09:07:41;;;;;;;3.25;2.25;;;16.70;42.30;;;;;;6126123;23;20155;-79
2021/01/29 09:10:13;;;;;;;2.28;1.95;;;16.60;42.40;;;;;;6126225;23;20133;-82
2021/01/29 09:12:40;;;;;;;4.22;2.10;;;16.60;42.30;;;;;;6125738;23;20192;-79
2021/01/29 09:15:26;;;;;;;2.78;2.30;;;16.60;42.30;;;;;;6101395;23;20235;-82
2021/01/29 09:18:24;;;;;;;2.70;2.17;;;16.60;42.30;;;;;;6126133;23;20189;-83
2021/01/29 09:21:16;;;;;;;2.75;2.10;;;16.60;42.40;;;;;;6127248;23;20141;-81
2021/01/29 09:23:48;;;;;;;2.65;1.92;;;16.60;42.30;;;;;;6127281;23;20132;-82
2021/01/29 09:26:31;;;;;;;4.22;1.83;;;16.60;42.20;;;;;;6128148;23;20147;-82
2021/01/29 09:29:17;;;;;;;3.25;2.20;;;16.60;42.10;;;;;;6126317;23;20168;-82
2021/01/29 09:31:44;;;;;;;2.53;2.08;;;16.60;42.20;;;;;;6127835;23;20137;-84
2021/01/29 09:34:20;;;;;;;2.60;2.20;;;16.60;42.00;;;;;;6127028;23;20141;-83
2021/01/29 09:36:52;;;;;;;2.95;1.98;;;16.70;41.90;;;;;;6126560;23;20163;-80
2021/01/29 09:39:26;;;;;;;4.00;2.22;;;16.70;42.00;;;;;;6126601;23;20140;-82
2021/01/29 09:42:04;;;;;;;4.15;2.38;;;16.70;41.70;;;;;;6128323;23;20152;-81
2021/01/29 09:44:57;;;;;;;2.63;2.05;;;16.70;42.00;;;;;;6127517;23;20139;-81
2021/01/29 09:47:27;;;;;;;3.88;2.20;;;16.70;42.70;;;;;;6128105;23;20145;-80
2021/01/29 09:50:05;;;;;;;2.85;2.22;;;16.70;41.90;;;;;;6101717;23;20144;-80
2021/01/29 09:52:36;;;;;;;2.20;1.92;;;16.70;41.90;;;;;;6127428;23;20144;-81
2021/01/29 09:55:29;;;;;;;2.45;2.20;;;16.60;42.10;;;;;;6127406;23;20140;-79
2021/01/29 09:58:16;;;;;;;2.63;2.10;;;16.70;41.90;;;;;;6122742;23;20199;-81
2021/01/29 10:00:45;;;;;;;2.60;1.92;;;16.70;41.80;;;;;;6128153;23;20141;-81
2021/01/29 10:03:25;;;;;;;3.10;2.25;;;16.70;41.40;;;;;;6103630;23;20152;-81
2021/01/29 10:06:04;;;;;;;3.20;2.30;;;16.80;41.40;;;;;;6118407;23;20129;-83
2021/01/29 10:08:36;;;;;;;3.22;2.22;;;16.80;41.30;;;;;;6143925;23;20129;-81
2021/01/29 10:11:40;;;;;;;2.83;2.30;;;16.80;41.20;;;;;;6148678;23;20209;-80
2021/01/29 10:14:22;;;;;;;2.88;2.58;;;16.80;41.30;;;;;;6169629;23;20194;-83
2021/01/29 10:16:55;;;;;;;3.55;2.10;;;16.80;41.70;;;;;;6169682;23;20178;-82
2021/01/29 10:19:23;;;;;;;2.63;2.20;;;16.70;41.30;;;;;;6119475;23;20575;-81
2021/01/29 10:21:58;;;;;;;3.17;2.28;;;16.70;41.60;;;;;;6171055;23;20139;-81
2021/01/29 10:24:39;;;;;;;3.45;2.30;;;16.60;41.60;;;;;;6170845;23;20154;-82
2021/01/29 10:27:31;;;;;;;2.20;2.00;;;16.70;41.50;;;;;;6172335;23;20131;-81
2021/01/29 10:30:26;;;;;;;2.70;2.03;;;16.70;41.60;;;;;;6082087;23;20157;-82
2021/01/29 10:33:09;;;;;;;2.83;2.30;;;16.70;41.70;;;;;;5944832;24;20207;-82
2021/01/29 10:35:41;;;;;;;2.65;2.10;;;16.70;41.40;;;;;;5968150;24;20156;-83
2021/01/29 10:38:12;;;;;;;2.63;2.20;;;16.70;41.50;;;;;;5968970;24;20164;-81
2021/01/29 10:40:55;;;;;;;3.20;2.33;;;16.70;41.70;;;;;;5948066;24;20167;-83
2021/01/29 10:43:27;;;;;;;2.72;2.20;;;16.70;41.30;;;;;;5949755;24;20156;-82
2021/01/29 10:46:34;;;;;;;2.30;2.10;;;16.80;41.20;;;;;;5944435;24;20152;-81
2021/01/29 10:49:31;;;;;;;2.75;2.30;;;16.80;41.30;;;;;;5966711;24;20148;-81
2021/01/29 10:52:23;;;;;;;3.08;2.55;;;16.80;41.40;;;;;;5942330;24;20196;-82
2021/01/29 10:55:12;;;;;;;2.60;2.40;;;16.70;41.50;;;;;;5966379;24;20170;-80
2021/01/29 10:57:48;;;;;;;2.97;2.40;;;16.70;41.40;;;;;;5966305;24;20198;-82
2021/01/29 11:00:26;;;;;;;2.83;2.30;;;16.80;41.30;;;;;;5943806;24;20175;-82
2021/01/29 11:03:14;;;;;;;2.60;2.13;;;16.80;41.80;;;;;;5944296;24;20160;-82
2021/01/29 11:06:01;;;;;;;2.67;2.38;;;16.80;40.70;;;;;;5943052;24;20177;-82
2021/01/29 11:08:34;;;;;;;3.00;2.30;;;16.90;41.00;;;;;;6024132;23;20170;-82
2021/01/29 11:11:04;;;;;;;3.92;2.08;;;16.80;40.90;;;;;;6141632;23;20191;-83
2021/01/29 11:13:54;;;;;;;3.20;2.30;;;16.80;40.90;;;;;;6117228;23;20128;-82
2021/01/29 11:16:46;;;;;;;3.08;2.38;;;16.80;40.90;;;;;;6142604;23;20180;-82
2021/01/29 11:19:45;;;;;;;2.75;2.03;;;16.80;41.20;;;;;;6143156;23;20509;-82
2021/01/29 11:22:56;;;;;;;2.50;2.10;;;16.70;41.10;;;;;;6138273;23;20133;-80
2021/01/29 11:25:51;;;;;;;3.15;2.50;;;16.80;40.90;;;;;;6138296;23;20211;-81
2021/01/29 11:28:39;;;;;;;2.83;2.30;;;16.80;40.80;;;;;;6141782;23;20136;-81
2021/01/29 11:31:46;;;;;;;3.10;2.17;;;16.80;41.10;;;;;;6142654;23;20144;-81
2021/01/29 11:34:30;;;;;;;3.03;2.40;;;16.70;41.20;;;;;;6025264;23;20161;-82
2021/01/29 11:37:07;;;;;;;2.30;2.10;;;16.70;41.30;;;;;;6003417;23;20174;-82
2021/01/29 11:40:16;;;;;;;3.92;2.40;;;16.70;41.40;;;;;;6047724;23;20673;-82
2021/01/29 11:42:48;;;;;;;3.00;2.30;;;16.80;40.80;;;;;;5992648;24;20159;-83
2021/01/29 11:45:49;;;;;;;3.30;2.50;;;16.80;40.80;;;;;;5990520;24;20158;-82
2021/01/29 11:48:31;;;;;;;3.03;2.40;;;16.90;40.60;;;;;;5968945;24;20596;-81
2021/01/29 11:51:15;;;;;;;4.03;2.38;;;16.90;40.50;;;;;;5992622;24;20528;-82
2021/01/29 11:53:59;;;;;;;2.38;2.15;;;16.90;40.50;;;;;;5964839;24;20162;-80
2021/01/29 11:56:28;;;;;;;3.78;2.35;;;16.90;40.50;;;;;;5942919;24;20186;-83
2021/01/29 11:59:46;;;;;;;2.40;2.20;;;16.90;40.50;;;;;;5967103;24;20151;-82
2021/01/29 12:02:42;;;;;;;2.85;2.20;;;16.80;40.50;;;;;;5936001;24;20187;-82
2021/01/29 12:05:45;;;;;;;2.58;2.33;;;16.90;40.60;;;;;;5912039;24;20176;-83
2021/01/29 12:08:32;;;;;;;2.80;2.42;;;16.90;40.30;;;;;;5946554;24;20200;-81
2021/01/29 12:11:12;;;;;;;2.60;2.33;;;16.90;40.50;;;;;;5979329;24;20215;-82
2021/01/29 12:13:38;;;;;;;2.97;2.50;;;16.90;40.40;;;;;;6001678;24;20159;-80
2021/01/29 12:16:17;;;;;;;2.28;2.08;;;16.90;40.40;;;;;;6004343;24;20172;-81
2021/01/29 12:18:46;;;;;;;2.80;2.50;;;16.80;40.40;;;;;;5985576;23;20151;-79
2021/01/29 12:21:23;;;;;;;4.85;2.40;;;16.90;40.20;;;;;;6061448;23;20201;-80
2021/01/29 12:24:02;;;;;;;2.70;2.40;;;16.90;40.50;;;;;;6085438;23;20144;-82
2021/01/29 12:26:40;;;;;;;2.92;2.42;;;16.80;40.30;;;;;;6086401;23;20138;-79
2021/01/29 12:29:23;;;;;;;3.45;2.50;;;16.90;40.00;;;;;;6086812;23;20153;-81
2021/01/29 12:32:24;;;;;;;2.88;2.42;;;16.90;40.30;;;;;;6084940;23;20192;-82
2021/01/29 12:35:34;;;;;;;3.38;2.42;;;16.90;40.40;;;;;;6082193;23;20165;-77
2021/01/29 12:38:08;;;;;;;2.47;2.17;;;16.90;40.10;;;;;;5987504;23;20562;-80
2021/01/29 12:40:46;;;;;;;2.97;2.20;;;16.90;40.30;;;;;;6022623;23;20567;-81
2021/01/29 12:43:28;;;;;;;4.00;2.75;;;17.00;40.10;;;;;;6029320;23;20150;-81
2021/01/29 12:46:20;;;;;;;2.50;2.30;;;16.90;40.20;;;;;;6028822;23;20139;-80
2021/01/29 12:49:05;;;;;;;2.88;2.55;;;16.90;40.40;;;;;;6003473;23;20157;-82
2021/01/29 12:51:55;;;;;;;3.08;2.25;;;16.90;40.20;;;;;;6005534;23;20139;-82
2021/01/29 12:55:02;;;;;;;2.78;2.28;;;16.90;40.30;;;;;;6027396;23;20168;-82
2021/01/29 12:57:29;;;;;;;2.40;2.20;;;16.90;40.20;;;;;;5977796;24;20210;-79
2021/01/29 13:00:12;;;;;;;2.55;2.35;;;16.90;40.20;;;;;;5976768;24;20140;-81
2021/01/29 13:03:28;;;;;;;4.55;2.28;;;16.90;40.20;;;;;;5950391;24;20170;-81
2021/01/29 13:06:21;;;;;;;4.00;2.40;;;16.90;40.20;;;;;;5945046;24;20190;-81
2021/01/29 13:09:07;;;;;;;4.63;2.60;;;16.90;40.30;;;;;;5945718;24;20159;-80
2021/01/29 13:11:52;;;;;;;2.53;2.20;;;16.90;40.40;;;;;;5939162;24;20311;-79
2021/01/29 13:14:33;;;;;;;2.65;2.45;;;16.90;40.00;;;;;;5948667;24;20246;-80
2021/01/29 13:17:26;;;;;;;2.55;2.25;;;16.80;40.40;;;;;;5946966;24;20188;-80
2021/01/29 13:20:14;;;;;;;3.38;2.55;;;16.80;40.00;;;;;;5945719;24;20160;-79
2021/01/29 13:22:44;;;;;;;2.33;2.00;;;16.80;40.40;;;;;;5945643;24;20153;-79
2021/01/29 13:25:15;;;;;;;2.78;2.30;;;16.80;40.10;;;;;;5923540;24;20205;-82
2021/01/29 13:27:49;;;;;;;4.00;2.30;;;16.80;40.20;;;;;;5902847;24;20164;-81
2021/01/29 13:30:36;;;;;;;5.60;2.47;;;16.80;40.10;;;;;;5947679;24;20157;-80
2021/01/29 13:33:11;;;;;;;3.95;2.72;;;16.80;40.30;;;;;;5971195;23;20166;-79
2021/01/29 13:35:40;;;;;;;4.35;2.67;;;16.90;40.00;;;;;;6034700;23;20566;-79
2021/01/29 13:38:24;;;;;;;4.03;2.50;;;16.90;39.90;;;;;;6012035;23;20561;-79
2021/01/29 13:40:50;;;;;;;5.13;2.30;;;16.90;40.00;;;;;;5989369;23;20481;-79
2021/01/29 13:43:32;;;;;;;4.80;2.63;;;16.90;40.30;;;;;;6118832;23;20140;-79
2021/01/29 13:46:02;;;;;;;4.68;2.50;;;16.70;40.60;;;;;;6126559;23;20143;-80
2021/01/29 13:48:30;;;;;;;4.63;2.50;;;16.80;40.40;;;;;;6124031;23;20195;-79
2021/01/29 13:51:00;;;;;;;4.97;2.55;;;16.80;40.20;;;;;;6097506;23;20242;-80
2021/01/29 13:53:29;;;;;;;3.58;2.20;;;16.90;40.20;;;;;;6144691;23;20140;-81
2021/01/29 13:55:58;;;;;;;3.25;2.40;;;16.90;40.00;;;;;;6144052;23;20132;-80
2021/01/29 13:58:37;;;;;;;4.22;2.15;;;16.90;39.90;;;;;;6148219;23;20164;-79
2021/01/29 14:01:12;;;;;;;4.65;2.75;;;17.00;40.20;;;;;;6121794;23;20207;-79
2021/01/29 14:03:51;;;;;;;4.97;2.50;;;17.00;39.40;;;;;;6141461;23;20152;-83